createdAt,value
2018-12-01T00:01:10.031Z,3.02
2018-12-01T00:03:40.623Z,2.87
2018-12-01T00:06:11.183Z,2.60
2018-12-01T00:08:41.748Z,3.10
2018-12-01T00:11:12.289Z,2.62
2018-12-01T00:13:42.900Z,3.50
2018-12-01T00:16:13.467Z,3.30
2018-12-01T00:18:44.331Z,3.60
2018-12-01T00:21:14.865Z,3.35
2018-12-01T00:23:45.451Z,3.72
2018-12-01T00:26:16.197Z,3.60
2018-12-01T00:28:46.755Z,3.50
2018-12-01T00:31:17.333Z,2.98
2018-12-01T00:33:47.878Z,3.45
2018-12-01T00:36:18.467Z,3.17
2018-12-01T00:38:49.053Z,3.35
2018-12-01T00:41:19.605Z,3.17
2018-12-01T00:43:50.206Z,3.25
2018-12-01T00:46:20.746Z,2.52
2018-12-01T00:48:51.338Z,3.30
2018-12-01T00:51:21.901Z,3.20
2018-12-01T00:53:52.477Z,2.70
2018-12-01T00:56:23.248Z,3.00
2018-12-01T00:58:53.820Z,3.30
2018-12-01T01:01:24.372Z,3.02
2018-12-01T01:03:54.945Z,3.22
2018-12-01T01:06:25.678Z,3.10
2018-12-01T01:08:56.433Z,2.80
2018-12-01T01:11:26.985Z,3.17
2018-12-01T01:13:57.570Z,3.33
2018-12-01T01:16:28.125Z,2.77
2018-12-01T01:18:58.697Z,3.30
2018-12-01T01:21:29.232Z,3.33
2018-12-01T01:23:59.984Z,3.05
2018-12-01T01:26:30.545Z,3.50
2018-12-01T01:29:01.113Z,3.47
2018-12-01T01:31:31.676Z,3.22
2018-12-01T01:34:02.253Z,3.08
2018-12-01T01:36:32.810Z,3.58
2018-12-01T01:39:03.485Z,3.20
2018-12-01T01:41:34.062Z,3.20
2018-12-01T01:44:05.022Z,3.52
2018-12-01T01:46:35.615Z,3.30
2018-12-01T01:49:12.690Z,3.65
2018-12-01T01:51:43.259Z,3.70
2018-12-01T01:54:13.864Z,3.45
2018-12-01T01:56:44.626Z,3.58
2018-12-01T01:59:15.168Z,3.52
2018-12-01T02:01:45.742Z,3.08
2018-12-01T02:04:16.306Z,3.83
2018-12-01T02:06:47.073Z,3.40
2018-12-01T02:09:17.634Z,4.40
2018-12-01T02:11:48.213Z,3.85
2018-12-01T02:14:18.825Z,3.50
2018-12-01T02:16:49.405Z,3.00
2018-12-01T02:19:19.971Z,3.00
2018-12-01T02:21:50.719Z,2.80
2018-12-01T02:24:27.951Z,3.50
2018-12-01T02:26:58.550Z,3.25
2018-12-01T02:29:29.133Z,3.80
2018-12-01T02:32:00.036Z,3.02
2018-12-01T02:34:30.318Z,3.87
2018-12-01T02:37:00.901Z,3.77
2018-12-01T02:39:31.478Z,4.12
2018-12-01T02:42:02.254Z,3.55
2018-12-01T02:44:59.258Z,3.35
2018-12-01T02:47:29.830Z,3.05
2018-12-01T02:49:59.834Z,4.12
2018-12-01T02:52:30.426Z,3.52
2018-12-01T02:55:00.971Z,3.80
2018-12-01T02:57:31.562Z,3.50
2018-12-01T03:00:02.578Z,3.83
2018-12-01T03:02:33.435Z,4.10
2018-12-01T03:05:04.325Z,3.65
2018-12-01T03:07:34.898Z,3.50
2018-12-01T03:10:11.553Z,4.55
2018-12-01T03:12:42.121Z,3.87
2018-12-01T03:15:12.904Z,3.42
2018-12-01T03:17:42.945Z,3.42
2018-12-01T03:20:14.697Z,3.55
2018-12-01T03:22:45.420Z,3.08
2018-12-01T03:25:17.389Z,3.50
2018-12-01T03:27:48.427Z,3.50
2018-12-01T03:30:23.812Z,3.12
2018-12-01T03:32:55.127Z,4.03
2018-12-01T03:35:26.073Z,3.37
2018-12-01T03:37:56.053Z,3.30
2018-12-01T03:40:26.089Z,3.03
2018-12-01T03:42:56.673Z,3.65
2018-12-01T03:45:26.662Z,4.60
2018-12-01T03:47:56.678Z,3.63
2018-12-01T03:50:26.681Z,2.87
2018-12-01T03:52:57.642Z,4.27
2018-12-01T03:55:29.593Z,3.30
2018-12-01T03:58:00.139Z,3.73
2018-12-01T04:00:34.844Z,3.30
2018-12-01T04:03:07.191Z,3.70
2018-12-01T04:05:37.189Z,3.37
2018-12-01T04:08:07.569Z,3.40
2018-12-01T04:10:37.581Z,3.07
2018-12-01T04:13:07.584Z,3.33
2018-12-01T04:15:37.661Z,3.10
2018-12-01T04:18:07.653Z,3.50
2018-12-01T04:20:37.673Z,3.83
2018-12-01T04:23:07.670Z,3.57
2018-12-01T04:25:37.694Z,3.83
2018-12-01T04:28:07.703Z,3.43
2018-12-01T04:30:37.726Z,3.50
2018-12-01T04:33:07.744Z,3.80
2018-12-01T04:35:37.750Z,3.50
2018-12-01T04:38:07.774Z,4.10
2018-12-01T04:40:37.783Z,3.60
2018-12-01T04:43:07.810Z,3.77
2018-12-01T04:45:37.830Z,3.37
2018-12-01T04:48:07.851Z,4.03
2018-12-01T04:50:38.049Z,4.10
2018-12-01T04:53:08.074Z,3.70
2018-12-01T04:55:38.102Z,3.67
2018-12-01T04:58:08.461Z,3.63
2018-12-01T05:00:38.797Z,4.20
2018-12-01T05:03:08.789Z,3.57
2018-12-01T05:05:38.804Z,3.70
2018-12-01T05:08:08.801Z,4.27
2018-12-01T05:10:38.806Z,4.37
2018-12-01T05:13:08.825Z,3.57
2018-12-01T05:15:38.853Z,3.70
2018-12-01T05:18:08.864Z,4.23
2018-12-01T05:20:38.889Z,4.07
2018-12-01T05:23:08.906Z,4.80
2018-12-01T05:25:38.929Z,3.77
2018-12-01T05:28:08.937Z,3.50
2018-12-01T05:30:38.995Z,3.80
2018-12-01T05:33:09.010Z,4.33
2018-12-01T05:35:39.025Z,4.00
2018-12-01T05:38:09.030Z,4.03
2018-12-01T05:40:39.045Z,3.90
2018-12-01T05:43:09.044Z,3.90
2018-12-01T05:45:39.045Z,4.00
2018-12-01T05:48:09.040Z,3.73
2018-12-01T05:50:39.053Z,3.90
2018-12-01T05:53:09.073Z,4.50
2018-12-01T05:55:39.108Z,5.83
2018-12-01T05:58:09.092Z,4.03
2018-12-01T06:00:39.110Z,4.30
2018-12-01T06:03:09.311Z,4.57
2018-12-01T06:05:39.327Z,3.57
2018-12-01T06:08:09.319Z,3.80
2018-12-01T06:10:39.329Z,4.37
2018-12-01T06:13:09.326Z,3.93
2018-12-01T06:15:39.374Z,4.60
2018-12-01T06:18:09.378Z,4.20
2018-12-01T06:20:39.389Z,4.33
2018-12-01T06:23:09.402Z,4.40
2018-12-01T06:25:39.422Z,4.60
2018-12-01T06:28:09.438Z,5.27
2018-12-01T06:30:39.485Z,4.23
2018-12-01T06:33:09.478Z,4.97
2018-12-01T06:35:39.825Z,4.30
2018-12-01T06:38:09.840Z,4.10
2018-12-01T06:40:39.841Z,3.70
2018-12-01T06:43:09.860Z,4.57
2018-12-01T06:45:39.885Z,5.67
2018-12-01T06:48:10.093Z,5.17
2018-12-01T06:50:40.089Z,4.83
2018-12-01T06:53:10.117Z,4.53
2018-12-01T06:55:40.322Z,5.10
2018-12-01T06:58:10.337Z,4.93
2018-12-01T07:00:40.696Z,4.73
2018-12-01T07:03:10.701Z,5.53
2018-12-01T07:05:40.690Z,4.87
2018-12-01T07:08:10.706Z,5.40
2018-12-01T07:10:40.737Z,4.87
2018-12-01T07:13:10.762Z,4.87
2018-12-01T07:15:41.337Z,5.30
2018-12-01T07:18:22.785Z,4.37
2018-12-01T07:20:52.792Z,5.63
2018-12-01T07:23:22.813Z,5.17
2018-12-01T07:25:53.125Z,4.83
2018-12-01T07:28:23.172Z,5.10
2018-12-01T07:30:53.177Z,4.97
2018-12-01T07:33:23.215Z,5.13
2018-12-01T07:35:53.204Z,4.73
2018-12-01T07:38:23.237Z,4.93
2018-12-01T07:40:53.253Z,5.20
2018-12-01T07:43:23.285Z,5.57
2018-12-01T07:45:53.461Z,5.27
2018-12-01T07:48:23.477Z,7.03
2018-12-01T07:50:53.488Z,8.00
2018-12-01T07:53:23.522Z,8.53
2018-12-01T07:55:53.638Z,6.83
2018-12-01T07:58:23.665Z,6.57
2018-12-01T08:00:53.845Z,5.10
2018-12-01T08:03:23.867Z,4.20
2018-12-01T08:05:53.863Z,4.20
2018-12-01T08:08:23.882Z,4.40
2018-12-01T08:10:53.878Z,4.90
2018-12-01T08:13:23.922Z,4.57
2018-12-01T08:15:53.921Z,4.67
2018-12-01T08:18:24.125Z,4.63
2018-12-01T08:20:54.130Z,4.70
2018-12-01T08:23:24.105Z,4.23
2018-12-01T08:25:54.654Z,5.12
2018-12-01T08:28:25.361Z,4.70
2018-12-01T08:30:55.591Z,4.63
2018-12-01T08:33:25.761Z,4.60
2018-12-01T08:35:55.778Z,3.93
2018-12-01T08:38:25.810Z,4.28
2018-12-01T08:40:55.844Z,5.07
2018-12-01T08:43:25.942Z,4.80
2018-12-01T08:45:56.490Z,4.53
2018-12-01T08:48:26.491Z,4.20
2018-12-01T08:50:57.309Z,4.72
2018-12-01T08:53:28.085Z,4.67
2018-12-01T08:55:58.656Z,4.37
2018-12-01T08:58:29.398Z,4.25
2018-12-01T09:00:59.421Z,5.00
2018-12-01T09:03:29.459Z,4.50
2018-12-01T09:06:00.051Z,3.80
2018-12-01T09:08:30.607Z,4.50
2018-12-01T09:11:01.182Z,4.20
2018-12-01T09:13:31.777Z,4.80
2018-12-01T09:16:02.317Z,4.80
2018-12-01T09:18:32.900Z,5.15
2018-12-01T09:21:03.806Z,5.45
2018-12-01T09:23:34.381Z,5.17
2018-12-01T09:26:05.173Z,5.17
2018-12-01T09:28:35.730Z,5.22
2018-12-01T09:31:06.330Z,5.35
2018-12-01T09:33:36.894Z,4.70
2018-12-01T09:36:07.473Z,4.20
2018-12-01T09:38:38.045Z,4.92
2018-12-01T09:41:08.605Z,5.28
2018-12-01T09:43:39.181Z,4.53
2018-12-01T09:46:09.745Z,4.58
2018-12-01T09:48:40.334Z,4.50
2018-12-01T09:51:10.877Z,4.00
2018-12-01T09:53:41.672Z,3.72
2018-12-01T09:56:12.249Z,3.60
2018-12-01T09:58:42.811Z,3.62
2018-12-01T10:01:13.350Z,3.47
2018-12-01T10:03:43.921Z,3.25
2018-12-01T10:06:14.806Z,2.95
2018-12-01T10:08:45.390Z,3.12
2018-12-01T10:11:15.932Z,3.52
2018-12-01T10:13:46.497Z,2.72
2018-12-01T10:16:17.073Z,3.10
2018-12-01T10:18:47.997Z,3.22
2018-12-01T10:21:18.552Z,2.95
2018-12-01T10:23:49.115Z,2.92
2018-12-01T10:26:19.644Z,2.70
2018-12-01T10:28:50.210Z,2.65
2018-12-01T10:31:20.764Z,2.55
2018-12-01T10:33:51.375Z,3.00
2018-12-01T10:36:21.966Z,2.60
2018-12-01T10:38:52.534Z,2.50
2018-12-01T10:41:23.093Z,2.95
2018-12-01T10:43:53.654Z,2.42
2018-12-01T10:46:24.194Z,2.65
2018-12-01T10:48:54.783Z,2.58
2018-12-01T10:51:25.702Z,2.58
2018-12-01T10:53:56.278Z,2.55
2018-12-01T10:56:26.877Z,2.75
2018-12-01T10:58:58.135Z,2.17
2018-12-01T11:01:32.817Z,2.50
2018-12-01T11:04:08.853Z,2.22
2018-12-01T11:06:39.453Z,2.40
2018-12-01T11:09:10.334Z,2.70
2018-12-01T11:11:40.949Z,2.62
2018-12-01T11:14:11.546Z,2.33
2018-12-01T11:16:42.097Z,2.50
2018-12-01T11:19:12.675Z,2.52
2018-12-01T11:21:43.572Z,2.30
2018-12-01T11:24:14.375Z,2.80
2018-12-01T11:26:44.959Z,2.33
2018-12-01T11:29:15.508Z,2.22
2018-12-01T11:31:46.565Z,2.10
2018-12-01T11:34:17.437Z,2.22
2018-12-01T11:36:48.364Z,2.40
2018-12-01T11:39:18.926Z,2.22
2018-12-01T11:41:49.492Z,2.30
2018-12-01T11:44:20.073Z,2.62
2018-12-01T11:46:50.875Z,1.67
2018-12-01T11:49:21.466Z,2.25
2018-12-01T11:51:52.058Z,1.70
2018-12-01T11:54:22.618Z,2.00
2018-12-01T11:57:00.116Z,1.87
2018-12-01T11:59:30.649Z,2.30
2018-12-01T12:02:01.238Z,1.70
2018-12-01T12:04:32.006Z,2.02
2018-12-01T12:07:02.945Z,1.92
2018-12-01T12:09:33.518Z,1.60
2018-12-01T12:12:04.557Z,1.67
2018-12-01T12:14:35.334Z,1.50
2018-12-01T12:17:06.238Z,1.80
2018-12-01T12:19:37.149Z,1.40
2018-12-01T12:22:07.693Z,1.70
2018-12-01T12:24:38.261Z,1.35
2018-12-01T12:27:08.779Z,1.20
2018-12-01T12:29:39.348Z,1.42
2018-12-01T12:32:10.105Z,1.47
2018-12-01T12:34:40.631Z,1.22
2018-12-01T12:37:11.205Z,1.70
2018-12-01T12:39:41.781Z,1.60
2018-12-01T12:42:12.322Z,1.85
2018-12-01T12:44:42.894Z,1.55
2018-12-01T12:47:13.456Z,1.65
2018-12-01T12:49:44.026Z,1.40
2018-12-01T12:52:14.578Z,1.57
2018-12-01T12:54:45.205Z,1.65
2018-12-01T12:57:15.745Z,1.45
2018-12-01T12:59:46.323Z,1.50
2018-12-01T13:02:16.933Z,3.17
2018-12-01T13:07:24.495Z,1.70
2018-12-01T13:09:55.025Z,1.60
2018-12-01T13:12:25.613Z,1.47
2018-12-01T13:14:56.151Z,1.67
2018-12-01T13:17:27.185Z,1.75
2018-12-01T13:19:57.710Z,1.30
2018-12-01T13:22:29.071Z,1.47
2018-12-01T13:24:59.697Z,1.52
2018-12-01T13:27:30.273Z,1.72
2018-12-01T13:30:01.532Z,1.47
2018-12-01T13:32:32.617Z,1.55
2018-12-01T13:35:03.498Z,1.70
2018-12-01T13:37:34.058Z,1.85
2018-12-01T13:40:08.329Z,1.87
2018-12-01T13:42:38.882Z,1.40
2018-12-01T13:45:14.435Z,1.60
2018-12-01T13:47:45.632Z,1.47
2018-12-01T13:50:20.874Z,1.52
2018-12-01T13:52:52.831Z,1.57
2018-12-01T13:55:23.762Z,1.77
2018-12-01T13:57:54.306Z,1.60
2018-12-01T14:00:26.395Z,2.10
2018-12-01T14:02:56.938Z,1.57
2018-12-01T14:05:27.502Z,1.65
2018-12-01T14:07:58.062Z,1.82
2018-12-01T14:10:30.081Z,1.80
2018-12-01T14:13:05.212Z,1.90
2018-12-01T14:15:36.117Z,2.08
2018-12-01T14:18:07.230Z,1.87
2018-12-01T14:20:37.801Z,2.17
2018-12-01T14:23:08.696Z,2.10
2018-12-01T14:25:39.625Z,1.80
2018-12-01T14:28:11.340Z,1.80
2018-12-01T14:30:42.102Z,1.65
2018-12-01T14:33:13.057Z,1.70
2018-12-01T14:35:43.642Z,1.85
2018-12-01T14:38:16.892Z,1.40
2018-12-01T14:40:49.751Z,1.65
2018-12-01T14:43:20.313Z,1.55
2018-12-01T14:45:50.897Z,1.80
2018-12-01T14:48:21.443Z,1.90
2018-12-01T14:50:52.513Z,2.10
2018-12-01T14:53:23.398Z,1.77
2018-12-01T14:55:54.027Z,2.65
2018-12-01T14:58:24.616Z,1.80
2018-12-01T15:00:55.165Z,2.02
2018-12-01T15:03:25.999Z,1.70
2018-12-01T15:05:56.377Z,1.85
2018-12-01T15:08:27.112Z,1.62
2018-12-01T15:10:57.693Z,1.70
2018-12-01T15:13:28.265Z,1.80
2018-12-01T15:15:58.836Z,1.95
2018-12-01T15:18:29.384Z,1.87
2018-12-01T15:20:59.950Z,2.00
2018-12-01T15:23:30.504Z,2.12
2018-12-01T15:26:01.092Z,1.65
2018-12-01T15:28:31.653Z,2.17
2018-12-01T15:31:02.617Z,2.33
2018-12-01T15:33:33.489Z,1.87
2018-12-01T15:36:04.118Z,2.65
2018-12-01T15:38:35.352Z,2.47
2018-12-01T15:41:05.902Z,2.33
2018-12-01T15:43:36.505Z,2.58
2018-12-01T15:46:07.057Z,2.50
2018-12-01T15:48:37.650Z,2.65
2018-12-01T15:51:08.529Z,2.42
2018-12-01T15:53:39.126Z,3.10
2018-12-01T15:56:10.104Z,3.30
2018-12-01T15:58:40.645Z,3.98
2018-12-01T16:01:11.241Z,3.52
2018-12-01T16:03:41.834Z,3.37
2018-12-01T16:06:11.830Z,3.30
2018-12-01T16:08:42.402Z,3.60
2018-12-01T16:11:12.989Z,3.55
2018-12-01T16:13:43.623Z,2.85
2018-12-01T16:16:14.190Z,2.87
2018-12-01T16:18:45.097Z,3.15
2018-12-01T16:21:15.681Z,2.85
2018-12-01T16:23:46.262Z,3.17
2018-12-01T16:26:16.835Z,3.75
2018-12-01T16:28:47.405Z,3.67
2018-12-01T16:31:18.325Z,3.42
2018-12-01T16:33:48.913Z,2.92
2018-12-01T16:36:19.534Z,3.02
2018-12-01T16:38:50.475Z,3.22
2018-12-01T16:41:26.210Z,3.05
2018-12-01T16:43:56.815Z,3.40
2018-12-01T16:46:27.381Z,2.90
2018-12-01T16:48:57.964Z,2.87
2018-12-01T16:51:28.545Z,3.10
2018-12-01T16:53:59.101Z,3.17
2018-12-01T16:56:30.225Z,2.70
2018-12-01T16:59:01.129Z,3.10
2018-12-01T17:01:31.725Z,3.02
2018-12-01T17:04:02.614Z,2.35
2018-12-01T17:06:33.202Z,2.90
2018-12-01T17:09:04.645Z,2.70
2018-12-01T17:11:35.991Z,3.00
2018-12-01T17:14:06.553Z,2.70
2018-12-01T17:16:38.130Z,2.12
2018-12-01T17:19:08.687Z,2.52
2018-12-01T17:21:39.259Z,2.10
2018-12-01T17:24:09.839Z,2.47
2018-12-01T17:26:40.382Z,2.25
2018-12-01T17:29:10.949Z,2.58
2018-12-01T17:31:41.568Z,2.40
2018-12-01T17:34:12.142Z,2.50
2018-12-01T17:36:42.706Z,2.20
2018-12-01T17:39:13.261Z,2.92
2018-12-01T17:41:43.853Z,3.22
2018-12-01T17:44:14.478Z,2.85
2018-12-01T17:46:45.050Z,2.80
2018-12-01T17:49:16.312Z,2.58
2018-12-01T17:51:46.869Z,2.45
2018-12-01T17:54:18.231Z,3.10
2018-12-01T17:56:48.834Z,3.00
2018-12-01T17:59:19.410Z,2.80
2018-12-01T18:01:49.985Z,2.42
2018-12-01T18:04:20.522Z,2.30
2018-12-01T18:06:51.072Z,2.27
2018-12-01T18:09:21.805Z,2.52
2018-12-01T18:11:52.378Z,1.95
2018-12-01T18:14:22.933Z,2.22
2018-12-01T18:16:53.523Z,2.50
2018-12-01T18:19:24.061Z,2.00
2018-12-01T18:21:54.638Z,2.60
2018-12-01T18:24:25.183Z,2.40
2018-12-01T18:26:56.086Z,2.02
2018-12-01T18:29:26.651Z,2.30
2018-12-01T18:31:57.223Z,2.08
2018-12-01T18:34:27.964Z,2.10
2018-12-01T18:36:58.737Z,2.37
2018-12-01T18:39:29.298Z,2.25
2018-12-01T18:41:59.882Z,2.33
2018-12-01T18:44:30.442Z,2.12
2018-12-01T18:47:01.206Z,2.08
2018-12-01T18:49:31.776Z,2.00
2018-12-01T18:52:02.348Z,2.10
2018-12-01T18:54:33.090Z,2.08
2018-12-01T18:57:04.178Z,2.05
2018-12-01T18:59:35.970Z,2.30
2018-12-01T19:02:07.477Z,2.27
2018-12-01T19:04:38.040Z,2.65
2018-12-01T19:07:08.585Z,3.10
2018-12-01T19:09:39.182Z,2.60
2018-12-01T19:12:10.055Z,2.60
2018-12-01T19:14:40.625Z,2.30
2018-12-01T19:17:11.166Z,2.37
2018-12-01T19:19:41.726Z,2.25
2018-12-01T19:22:12.250Z,1.65
2018-12-01T19:24:42.829Z,2.40
2018-12-01T19:27:13.385Z,2.85
2018-12-01T19:29:43.961Z,2.17
2018-12-01T19:32:14.526Z,2.00
2018-12-01T19:34:45.089Z,1.42
2018-12-01T19:37:15.669Z,2.00
2018-12-01T19:39:46.218Z,1.85
2018-12-01T19:42:16.794Z,2.08
2018-12-01T19:44:47.322Z,1.52
2018-12-01T19:47:17.914Z,1.90
2018-12-01T19:49:48.441Z,1.10
2018-12-01T19:52:19.009Z,1.10
2018-12-01T19:54:49.573Z,1.50
2018-12-01T19:57:20.138Z,1.40
2018-12-01T19:59:50.690Z,1.10
2018-12-01T20:02:21.264Z,1.32
2018-12-01T20:04:51.797Z,1.22
2018-12-01T20:07:22.366Z,1.17
2018-12-01T20:09:52.893Z,1.10
2018-12-01T20:12:23.449Z,0.82
2018-12-01T20:14:55.748Z,0.98
2018-12-01T20:17:32.963Z,1.15
2018-12-01T20:20:03.485Z,1.05
2018-12-01T20:22:34.041Z,1.35
2018-12-01T20:25:05.979Z,1.25
2018-12-01T20:27:36.542Z,1.02
2018-12-01T20:30:13.110Z,1.00
2018-12-01T20:32:43.677Z,1.20
2018-12-01T20:35:17.905Z,1.10
2018-12-01T20:37:52.086Z,1.00
2018-12-01T20:40:22.609Z,1.00
2018-12-01T20:42:53.177Z,0.85
2018-12-01T20:45:23.734Z,1.32
2018-12-01T20:47:54.297Z,0.90
2018-12-01T20:50:24.845Z,1.10
2018-12-01T20:52:55.462Z,1.15
2018-12-01T20:55:27.825Z,1.30
2018-12-01T20:58:00.217Z,1.10
2018-12-01T21:00:30.745Z,1.17
2018-12-01T21:03:01.325Z,1.10
2018-12-01T21:05:32.257Z,1.17
2018-12-01T21:08:03.172Z,1.90
2018-12-01T21:10:35.510Z,2.87
2018-12-01T21:13:06.693Z,1.30
2018-12-01T21:15:37.225Z,1.30
2018-12-01T21:18:08.106Z,1.22
2018-12-01T21:20:39.014Z,1.20
2018-12-01T21:23:09.524Z,1.20
2018-12-01T21:25:40.249Z,1.20
2018-12-01T21:28:10.814Z,0.85
2018-12-01T21:30:41.529Z,0.70
2018-12-01T21:33:14.193Z,1.00
2018-12-01T21:35:44.745Z,1.12
2018-12-01T21:38:15.777Z,1.02
2018-12-01T21:40:46.662Z,1.00
2018-12-01T21:43:17.389Z,0.80
2018-12-01T21:45:48.462Z,1.17
2018-12-01T21:48:19.033Z,1.00
2018-12-01T21:50:50.138Z,1.00
2018-12-01T21:53:23.562Z,1.40
2018-12-01T21:55:54.124Z,0.78
2018-12-01T21:58:24.735Z,1.02
2018-12-01T22:00:58.571Z,1.00
2018-12-01T22:03:29.995Z,0.70
2018-12-01T22:06:01.790Z,0.82
2018-12-01T22:08:33.229Z,1.00
2018-12-01T22:11:04.006Z,1.17
2018-12-01T22:13:34.565Z,1.05
2018-12-01T22:16:06.053Z,0.90
2018-12-01T22:18:36.600Z,0.80
2018-12-01T22:21:07.149Z,0.88
2018-12-01T22:23:37.861Z,0.90
2018-12-01T22:26:12.871Z,0.70
2018-12-01T22:29:19.758Z,1.10
2018-12-01T22:31:54.391Z,0.90
2018-12-01T22:34:30.546Z,0.90
2018-12-01T22:37:05.467Z,0.68
2018-12-01T22:39:40.060Z,0.93
2018-12-01T22:42:14.439Z,1.05
2018-12-01T22:44:48.407Z,0.80
2018-12-01T22:47:22.470Z,0.68
2018-12-01T22:49:56.356Z,0.60
2018-12-01T22:52:30.995Z,0.70
2018-12-01T22:55:04.742Z,0.62
2018-12-01T22:57:35.852Z,0.90
2018-12-01T23:00:13.551Z,0.80
2018-12-01T23:02:44.182Z,0.72
2018-12-01T23:05:14.723Z,0.60
2018-12-01T23:07:45.307Z,0.70
2018-12-01T23:10:23.013Z,0.60
2018-12-01T23:12:53.572Z,0.68
2018-12-01T23:15:24.211Z,0.70
2018-12-01T23:17:54.782Z,0.62
2018-12-01T23:20:25.325Z,0.80
2018-12-01T23:22:55.918Z,0.70
2018-12-01T23:25:26.457Z,0.82
2018-12-01T23:27:57.009Z,0.82
2018-12-01T23:30:29.845Z,0.60
2018-12-01T23:33:07.018Z,0.80
2018-12-01T23:35:37.841Z,0.70
2018-12-01T23:38:08.757Z,0.75
2018-12-01T23:40:40.232Z,0.60
2018-12-01T23:43:10.808Z,0.70
2018-12-01T23:45:42.734Z,0.80
2018-12-01T23:48:13.666Z,0.70
2018-12-01T23:50:46.903Z,0.70
2018-12-01T23:53:17.906Z,0.70
2018-12-01T23:55:48.464Z,0.75
2018-12-01T23:58:18.995Z,0.62
